Time;durP1;ratioP1;P1;durP2;ratioP2;P2;SDS_P1;SDS_P2;PMS_P1;PMS_P2;Temp;Humidity;BMP_temperature;BMP_pressure;BME280_temperature;BME280_humidity;BME280_pressure;Samples;Min_cycle;Max_cycle;Signal;HPM_P1;HPM_P2
2022/06/27 00:00:06;;;;;;;;;;;;;;;26.39;52.36;99200.03;7314500;19;129774;-34
2022/06/27 00:02:31;;;;;;;;;;;;;;;26.40;52.05;99208.72;7315234;19;128955;-34
2022/06/27 00:04:56;;;;;;;;;;;;;;;26.07;47.31;99202.94;7312790;19;129271;-42
2022/06/27 00:07:21;;;;;;;;;;;;;;;25.80;47.20;99203.44;7313206;19;129476;-38
2022/06/27 00:09:47;;;;;;;;;;;;;;;25.75;46.43;99203.16;7313235;19;131518;-39
2022/06/27 00:12:12;;;;;;;;;;;;;;;25.73;46.59;99192.00;7314426;19;129596;-39
2022/06/27 00:14:37;;;;;;;;;;;;;;;25.75;46.06;99192.63;7314775;19;129337;-36
2022/06/27 00:17:03;;;;;;;;;;;;;;;25.75;46.18;99200.53;7314099;19;129489;-37
2022/06/27 00:19:28;;;;;;;;;;;;;;;25.76;46.16;99196.91;7314209;19;130375;-34
2022/06/27 00:21:54;;;;;;;;;;;;;;;25.79;46.38;99199.19;7309292;19;131318;-34
2022/06/27 00:24:19;;;;;;;;;;;;;;;26.02;51.06;99194.75;7314583;19;130162;-34
2022/06/27 00:26:44;;;;;;;;;;;;;;;26.15;51.94;99191.50;7314416;19;129513;-33
2022/06/27 00:29:09;;;;;;;;;;;;;;;26.23;51.98;99186.97;7310978;19;130276;-39
2022/06/27 00:31:35;;;;;;;;;;;;;;;26.29;51.26;99183.66;7312639;19;129030;-38
2022/06/27 00:34:00;;;;;;;;;;;;;;;26.33;51.62;99190.19;7315393;19;129278;-36
2022/06/27 00:36:25;;;;;;;;;;;;;;;26.34;52.29;99191.84;7305159;19;130201;-35
2022/06/27 00:38:51;;;;;;;;;;;;;;;26.38;52.23;99190.47;7311002;19;129627;-36
2022/06/27 00:41:16;;;;;;;;;;;;;;;26.39;51.75;99180.75;7308739;19;130062;-37
2022/06/27 00:43:43;;;;;;;;;;;;;;;26.41;52.07;99186.66;7313542;19;129034;-37
2022/06/27 00:46:08;;;;;;;;;;;;;;;26.38;50.34;99181.72;7306705;19;129283;-47
2022/06/27 00:48:33;;;;;;;;;;;;;;;25.79;47.07;99186.03;7309396;19;129213;-40
2022/06/27 00:50:59;;;;;;;;;;;;;;;25.76;46.65;99199.56;7314830;19;129142;-35
2022/06/27 00:53:24;;;;;;;;;;;;;;;25.66;46.53;99181.38;7314088;19;129090;-38
2022/06/27 00:55:50;;;;;;;;;;;;;;;25.77;46.05;99201.19;7313668;19;130206;-38
2022/06/27 00:58:16;;;;;;;;;;;;;;;25.78;45.73;99194.94;7312494;19;129118;-38
2022/06/27 01:00:41;;;;;;;;;;;;;;;25.77;45.68;99198.53;7313082;19;129836;-34
2022/06/27 01:03:06;;;;;;;;;;;;;;;25.76;46.23;99186.38;7315105;19;129196;-36
2022/06/27 01:05:32;;;;;;;;;;;;;;;25.99;50.57;99197.72;7311645;19;129617;-38
2022/06/27 01:07:57;;;;;;;;;;;;;;;26.15;51.25;99196.78;7311342;19;129808;-35
2022/06/27 01:10:22;;;;;;;;;;;;;;;26.23;51.71;99194.88;7314534;19;129097;-34
2022/06/27 01:12:49;;;;;;;;;;;;;;;26.30;51.65;99190.53;7313940;19;129026;-41
2022/06/27 01:15:14;;;;;;;;;;;;;;;26.34;51.57;99191.84;7313353;19;130959;-37
2022/06/27 01:17:40;;;;;;;;;;;;;;;26.37;51.77;99191.47;7311467;19;129717;-33
2022/06/27 01:20:06;;;;;;;;;;;;;;;26.41;51.49;99191.94;7313564;19;129162;-33
2022/06/27 01:22:31;;;;;;;;;;;;;;;26.42;51.89;99196.19;7312198;19;129444;-34
2022/06/27 01:24:56;;;;;;;;;;;;;;;26.43;51.62;99196.00;7311398;19;129931;-38
2022/06/27 01:27:22;;;;;;;;;;;;;;;26.43;51.93;99198.66;7313513;19;129354;-35
2022/06/27 01:29:47;;;;;;;;;;;;;;;26.30;48.42;99200.25;7312010;19;128824;-41
2022/06/27 01:32:12;;;;;;;;;;;;;;;25.85;47.04;99206.38;7314080;19;129300;-34
2022/06/27 01:34:38;;;;;;;;;;;;;;;25.70;46.33;99187.09;7313722;19;129087;-37
2022/06/27 01:37:04;;;;;;;;;;;;;;;25.77;46.84;99197.75;7307982;19;129870;-35
2022/06/27 01:39:29;;;;;;;;;;;;;;;25.78;46.42;99205.47;7310808;19;129001;-37
2022/06/27 01:41:56;;;;;;;;;;;;;;;25.78;46.17;99209.91;7309076;19;129586;-31
2022/06/27 01:44:22;;;;;;;;;;;;;;;25.78;46.13;99204.63;7311728;19;129084;-37
2022/06/27 01:46:49;;;;;;;;;;;;;;;25.82;47.61;99208.56;7299130;19;130456;-34
2022/06/27 01:49:15;;;;;;;;;;;;;;;26.04;51.46;99203.31;7307949;19;129937;-38
2022/06/27 01:51:48;;;;;;;;;;;;;;;26.12;51.21;99197.97;7308503;19;128995;-41
2022/06/27 01:54:14;;;;;;;;;;;;;;;26.27;51.92;99198.81;7311857;19;130156;-41
2022/06/27 01:56:40;;;;;;;;;;;;;;;26.35;51.57;99197.91;7310696;19;129133;-37
2022/06/27 01:59:05;;;;;;;;;;;;;;;26.37;51.49;99194.09;7302896;19;129911;-38
2022/06/27 02:01:30;;;;;;;;;;;;;;;26.39;52.16;99202.66;7311828;19;129278;-39
2022/06/27 02:03:56;;;;;;;;;;;;;;;26.43;52.17;99195.19;7307209;19;130096;-38
2022/06/27 02:06:22;;;;;;;;;;;;;;;26.44;52.31;99197.66;7306065;19;131132;-41
2022/06/27 02:08:50;;;;;;;;;;;;;;;26.46;52.40;99195.66;7305607;19;128870;-38
2022/06/27 02:11:15;;;;;;;;;;;;;;;25.97;47.10;99194.44;7310755;19;129409;-42
2022/06/27 02:13:42;;;;;;;;;;;;;;;25.80;46.44;99187.66;7307603;19;129500;-40
2022/06/27 02:16:09;;;;;;;;;;;;;;;25.78;46.74;99187.03;7308511;19;129964;-40
2022/06/27 02:18:36;;;;;;;;;;;;;;;25.78;45.99;99184.41;7304153;19;129376;-38
2022/06/27 02:21:01;;;;;;;;;;;;;;;25.79;46.36;99175.50;7311811;19;130023;-42
2022/06/27 02:23:27;;;;;;;;;;;;;;;25.79;46.51;99188.66;7310434;19;130354;-38
2022/06/27 02:25:52;;;;;;;;;;;;;;;25.80;46.34;99192.91;7309172;19;130945;-40
2022/06/27 02:28:17;;;;;;;;;;;;;;;25.91;49.84;99181.16;7308778;19;129947;-38
2022/06/27 02:30:43;;;;;;;;;;;;;;;26.11;51.25;99182.34;7312034;19;129033;-40
2022/06/27 02:33:08;;;;;;;;;;;;;;;26.21;51.34;99183.72;7311214;19;129377;-41
2022/06/27 02:35:34;;;;;;;;;;;;;;;26.29;51.37;99188.91;7310622;19;130327;-37
2022/06/27 02:38:00;;;;;;;;;;;;;;;26.35;51.58;99188.19;7308288;19;130002;-40
2022/06/27 02:40:26;;;;;;;;;;;;;;;26.40;51.67;99201.66;7310789;19;129555;-40
2022/06/27 02:42:54;;;;;;;;;;;;;;;26.41;51.84;99203.28;7311637;19;129698;-39
2022/06/27 02:45:19;;;;;;;;;;;;;;;26.42;51.93;99215.47;7309417;19;130330;-37
2022/06/27 02:47:46;;;;;;;;;;;;;;;26.44;51.73;99213.47;7308908;19;130833;-41
2022/06/27 02:50:11;;;;;;;;;;;;;;;26.46;52.53;99214.09;7310889;19;129719;-30
2022/06/27 02:52:40;;;;;;;;;;;;;;;26.47;52.13;99221.03;7311434;19;131392;-33
2022/06/27 02:55:09;;;;;;;;;;;;;;;25.92;47.25;99223.13;7310848;19;129199;-38
2022/06/27 02:57:53;;;;;;;;;;;;;;;25.81;46.50;99220.91;7307326;19;129202;-34
2022/06/27 03:00:18;;;;;;;;;;;;;;;25.79;46.25;99219.44;7309193;19;130733;-34
2022/06/27 03:02:44;;;;;;;;;;;;;;;25.80;45.96;99223.72;7310363;19;130090;-32
2022/06/27 03:05:09;;;;;;;;;;;;;;;25.80;45.84;99221.09;7309367;19;129131;-36
2022/06/27 03:07:38;;;;;;;;;;;;;;;25.82;45.72;99217.28;7306149;19;130356;-32
2022/06/27 03:10:04;;;;;;;;;;;;;;;25.82;45.89;99211.22;7310053;19;129040;-39
2022/06/27 03:12:29;;;;;;;;;;;;;;;25.95;50.53;99201.69;7309583;19;131339;-37
2022/06/27 03:14:54;;;;;;;;;;;;;;;26.14;51.11;99197.78;7309564;19;130525;-33
2022/06/27 03:17:20;;;;;;;;;;;;;;;26.25;51.80;99200.81;7303402;19;130867;-33
2022/06/27 03:19:45;;;;;;;;;;;;;;;26.31;51.30;99192.16;7309730;19;129481;-38
2022/06/27 03:22:10;;;;;;;;;;;;;;;26.37;51.69;99196.75;7306515;19;130176;-40
2022/06/27 03:24:36;;;;;;;;;;;;;;;26.34;51.74;99186.56;7305748;19;130363;-36
2022/06/27 03:27:01;;;;;;;;;;;;;;;26.45;52.20;99203.75;7308823;19;129251;-35
2022/06/27 03:29:26;;;;;;;;;;;;;;;26.45;51.78;99204.56;7305982;19;130426;-35
2022/06/27 03:31:51;;;;;;;;;;;;;;;26.46;51.83;99200.91;7309433;19;129458;-34
2022/06/27 03:34:17;;;;;;;;;;;;;;;26.47;52.24;99207.84;7307754;19;129690;-41
2022/06/27 03:36:43;;;;;;;;;;;;;;;26.45;52.13;99201.94;7311850;19;129510;-32
2022/06/27 03:39:10;;;;;;;;;;;;;;;25.94;46.93;99207.97;7313464;19;128920;-37
2022/06/27 03:41:35;;;;;;;;;;;;;;;25.86;46.70;99210.66;7313714;19;129520;-40
2022/06/27 03:44:00;;;;;;;;;;;;;;;25.81;46.53;99210.38;7315112;19;130401;-37
2022/06/27 03:46:25;;;;;;;;;;;;;;;25.81;46.25;99215.66;7313297;19;130743;-38
2022/06/27 03:51:35;;;;;;;;;;;;;;;25.82;46.03;99217.28;7315508;19;129043;-40
2022/06/27 03:54:00;;;;;;;;;;;;;;;25.84;45.73;99214.47;7316501;19;130943;-41
2022/06/27 03:56:26;;;;;;;;;;;;;;;26.00;50.62;99220.41;7311404;19;129905;-39
2022/06/27 03:58:51;;;;;;;;;;;;;;;26.18;51.92;99218.31;7313722;19;129316;-40
2022/06/27 04:01:16;;;;;;;;;;;;;;;26.20;51.63;99211.06;7314297;19;130112;-39
2022/06/27 04:03:41;;;;;;;;;;;;;;;26.35;51.70;99219.81;7307697;19;131220;-39
2022/06/27 04:06:07;;;;;;;;;;;;;;;26.37;51.94;99223.09;7311552;19;129064;-41
2022/06/27 04:08:32;;;;;;;;;;;;;;;26.43;51.86;99230.28;7304975;19;130077;-39
2022/06/27 04:10:57;;;;;;;;;;;;;;;26.47;51.76;99230.75;7313520;19;129337;-41
2022/06/27 04:13:23;;;;;;;;;;;;;;;26.40;51.62;99214.00;7309700;19;129996;-40
2022/06/27 04:15:48;;;;;;;;;;;;;;;26.50;52.25;99225.94;7314802;19;129201;-40
2022/06/27 04:18:13;;;;;;;;;;;;;;;26.51;51.92;99224.94;7307465;19;129204;-41
2022/06/27 04:20:39;;;;;;;;;;;;;;;26.52;52.22;99208.13;7313210;19;131894;-39
2022/06/27 04:23:04;;;;;;;;;;;;;;;26.01;46.63;99216.84;7310957;19;132322;-41
2022/06/27 04:25:29;;;;;;;;;;;;;;;25.87;46.54;99214.94;7310891;19;129829;-39
2022/06/27 04:27:54;;;;;;;;;;;;;;;25.84;46.49;99210.03;7307815;19;129558;-40
2022/06/27 04:30:20;;;;;;;;;;;;;;;25.83;46.03;99213.66;7311509;19;129204;-41
2022/06/27 04:32:48;;;;;;;;;;;;;;;25.83;45.73;99207.56;7310694;19;130261;-43
2022/06/27 04:35:13;;;;;;;;;;;;;;;25.86;45.70;99205.41;7299380;19;130714;-41
2022/06/27 04:37:41;;;;;;;;;;;;;;;25.84;45.95;99199.47;7295692;19;131502;-41
2022/06/27 04:40:07;;;;;;;;;;;;;;;25.86;49.80;99176.44;7308735;19;130044;-42
2022/06/27 04:42:32;;;;;;;;;;;;;;;26.15;51.33;99192.34;7309172;19;131354;-39
2022/06/27 04:44:58;;;;;;;;;;;;;;;26.29;51.07;99188.91;7304037;19;129195;-37
2022/06/27 04:47:24;;;;;;;;;;;;;;;26.36;51.40;99189.03;7300567;19;130057;-39
2022/06/27 04:49:50;;;;;;;;;;;;;;;26.41;51.29;99187.47;7292911;19;130023;-39
2022/06/27 04:52:16;;;;;;;;;;;;;;;26.40;51.66;99171.81;7303919;19;130682;-43
2022/06/27 04:54:43;;;;;;;;;;;;;;;26.49;51.51;99192.69;7303180;19;130638;-39
2022/06/27 04:57:08;;;;;;;;;;;;;;;26.51;52.33;99193.28;7304578;19;131258;-43
2022/06/27 04:59:33;;;;;;;;;;;;;;;26.45;51.64;99178.19;7308252;19;131151;-36
2022/06/27 05:01:59;;;;;;;;;;;;;;;26.56;51.91;99182.22;7306702;19;129360;-34
2022/06/27 05:04:24;;;;;;;;;;;;;;;26.55;51.95;99177.94;7297565;19;131998;-44
2022/06/27 05:06:49;;;;;;;;;;;;;;;25.99;47.45;99187.19;7292314;19;130493;-36
2022/06/27 05:09:16;;;;;;;;;;;;;;;25.91;46.54;99189.88;7304904;19;130461;-36
2022/06/27 05:11:41;;;;;;;;;;;;;;;25.89;46.47;99196.31;7310437;19;130792;-41
2022/06/27 05:14:07;;;;;;;;;;;;;;;25.87;46.63;99193.84;7305781;19;130460;-33
2022/06/27 05:16:32;;;;;;;;;;;;;;;25.78;45.90;99168.59;7298719;19;129527;-37
2022/06/27 05:18:58;;;;;;;;;;;;;;;25.87;45.76;99185.97;7296910;19;131292;-40
2022/06/27 05:21:23;;;;;;;;;;;;;;;25.88;46.14;99179.72;7304367;19;130740;-39
2022/06/27 05:23:50;;;;;;;;;;;;;;;25.90;45.69;99184.81;7301163;19;129912;-40
2022/06/27 05:26:16;;;;;;;;;;;;;;;26.10;51.23;99184.16;7302013;19;131006;-40
2022/06/27 05:28:41;;;;;;;;;;;;;;;26.28;51.63;99191.75;7301521;19;129770;-39
2022/06/27 05:31:07;;;;;;;;;;;;;;;26.36;51.78;99197.72;7302833;19;130785;-40
2022/06/27 05:33:32;;;;;;;;;;;;;;;26.42;51.66;99189.13;7306275;19;130373;-34
2022/06/27 05:35:57;;;;;;;;;;;;;;;26.46;51.88;99189.56;7303284;19;130524;-37
2022/06/27 05:38:23;;;;;;;;;;;;;;;26.52;51.49;99194.94;7303725;19;129777;-40
2022/06/27 05:40:49;;;;;;;;;;;;;;;26.52;51.19;99194.94;7307438;19;131291;-37
2022/06/27 05:43:14;;;;;;;;;;;;;;;26.55;51.88;99204.28;7309950;19;130884;-40
2022/06/27 05:45:40;;;;;;;;;;;;;;;26.54;52.09;99192.13;7308283;19;129834;-38
2022/06/27 05:48:06;;;;;;;;;;;;;;;26.57;52.45;99197.03;7304102;19;130009;-39
2022/06/27 05:50:31;;;;;;;;;;;;;;;26.51;52.03;99188.00;7310911;19;130364;-39
2022/06/27 05:52:59;;;;;;;;;;;;;;;25.98;46.85;99201.34;7309078;19;130111;-40
2022/06/27 05:55:24;;;;;;;;;;;;;;;25.90;46.56;99200.59;7297898;19;131013;-39
2022/06/27 05:57:50;;;;;;;;;;;;;;;25.79;46.47;99191.28;7307866;19;131183;-40
2022/06/27 06:00:17;;;;;;;;;;;;;;;25.86;46.60;99200.13;7304944;19;131053;-42
2022/06/27 06:02:42;;;;;;;;;;;;;;;25.86;46.53;99200.13;7301980;19;131127;-41
2022/06/27 06:05:11;;;;;;;;;;;;;;;25.88;45.74;99184.97;7301806;19;131186;-39
2022/06/27 06:07:37;;;;;;;;;;;;;;;25.90;45.46;99190.06;7304883;19;130895;-38
2022/06/27 06:10:03;;;;;;;;;;;;;;;26.03;50.56;99191.13;7279670;19;131245;-38
2022/06/27 06:12:29;;;;;;;;;;;;;;;26.23;51.69;99184.34;7301006;19;129678;-40
2022/06/27 06:14:55;;;;;;;;;;;;;;;26.36;50.93;99194.28;7306510;19;129376;-40
2022/06/27 06:17:21;;;;;;;;;;;;;;;26.44;51.36;99188.94;7301630;19;129223;-40
2022/06/27 06:19:47;;;;;;;;;;;;;;;26.48;51.64;99188.38;7308172;19;130764;-40
2022/06/27 06:22:12;;;;;;;;;;;;;;;26.50;51.46;99191.66;7305848;19;130273;-41
2022/06/27 06:24:37;;;;;;;;;;;;;;;26.51;52.04;99190.66;7300941;19;129921;-37
2022/06/27 06:27:03;;;;;;;;;;;;;;;26.53;51.82;99191.28;7293055;19;130215;-41
2022/06/27 06:29:29;;;;;;;;;;;;;;;26.08;48.50;99191.41;7300578;19;130465;-41
2022/06/27 06:31:54;;;;;;;;;;;;;;;26.01;47.60;99190.50;7303759;19;131197;-40
2022/06/27 06:34:19;;;;;;;;;;;;;;;26.01;47.46;99195.75;7300781;19;130373;-40
2022/06/27 06:36:45;;;;;;;;;;;;;;;26.01;47.30;99190.50;7302162;19;130382;-40
2022/06/27 06:39:11;;;;;;;;;;;;;;;26.03;47.11;99191.13;7297659;19;130479;-39
2022/06/27 06:41:37;;;;;;;;;;;;;;;26.03;46.74;99185.84;7301692;19;130829;-39
2022/06/27 06:44:05;;;;;;;;;;;;;;;26.05;47.15;99190.97;7301325;19;130826;-36
2022/06/27 06:46:31;;;;;;;;;;;;;;;26.06;46.60;99174.16;7298586;19;130526;-41
2022/06/27 06:49:02;;;;;;;;;;;;;;;26.07;46.58;99179.22;7299137;19;129369;-41
2022/06/27 06:51:28;;;;;;;;;;;;;;;26.08;46.18;99191.41;7300050;19;130636;-40
2022/06/27 06:53:54;;;;;;;;;;;;;;;26.09;46.80;99177.25;7302424;19;129457;-40
2022/06/27 06:56:19;;;;;;;;;;;;;;;26.10;46.76;99188.63;7299141;19;130207;-40
2022/06/27 06:58:44;;;;;;;;;;;;;;;26.10;46.85;99178.88;7299684;19;129963;-40
2022/06/27 07:01:10;;;;;;;;;;;;;;;26.12;45.91;99174.25;7298278;19;130213;-38
2022/06/27 07:03:35;;;;;;;;;;;;;;;26.19;49.34;99171.72;7299902;19;130006;-40
2022/06/27 07:06:04;;;;;;;;;;;;;;;26.33;51.54;99169.09;7298590;19;130016;-36
2022/06/27 07:08:33;;;;;;;;;;;;;;;26.46;51.40;99169.28;7300434;19;130818;-38
2022/06/27 07:10:59;;;;;;;;;;;;;;;26.53;51.89;99170.19;7310155;19;131996;-40
2022/06/27 07:13:25;;;;;;;;;;;;;;;26.57;51.70;99160.94;7307687;19;130830;-41
2022/06/27 07:15:50;;;;;;;;;;;;;;;26.62;52.30;99157.75;7307678;19;130286;-40
2022/06/27 07:18:17;;;;;;;;;;;;;;;26.63;52.16;99160.19;7305632;19;130178;-41
2022/06/27 07:20:43;;;;;;;;;;;;;;;26.64;52.16;99156.56;7311443;19;131191;-39
2022/06/27 07:23:09;;;;;;;;;;;;;;;26.40;50.27;99148.94;7311820;19;129465;-41
2022/06/27 07:25:35;;;;;;;;;;;;;;;26.13;48.13;99144.25;7303852;19;130476;-40
2022/06/27 07:28:00;;;;;;;;;;;;;;;26.12;47.76;99149.72;7305753;19;131223;-41
2022/06/27 07:30:26;;;;;;;;;;;;;;;26.02;47.74;99134.16;7307899;19;130780;-41
2022/06/27 07:32:51;;;;;;;;;;;;;;;26.12;47.19;99150.53;7308790;19;130246;-38
2022/06/27 07:35:20;;;;;;;;;;;;;;;26.13;47.27;99152.16;7303911;19;131335;-41
2022/06/27 07:37:48;;;;;;;;;;;;;;;26.12;46.76;99150.53;7306882;19;131140;-41
2022/06/27 07:40:14;;;;;;;;;;;;;;;26.14;46.96;99145.91;7313108;19;129392;-40
2022/06/27 07:42:40;;;;;;;;;;;;;;;26.15;46.94;99147.53;7312639;19;131189;-40
2022/06/27 07:45:08;;;;;;;;;;;;;;;26.16;46.70;99148.38;7303730;19;130199;-40
2022/06/27 07:47:33;;;;;;;;;;;;;;;26.18;46.30;99151.66;7305873;19;131244;-41
2022/06/27 07:49:58;;;;;;;;;;;;;;;26.19;46.58;99151.47;7305359;19;131084;-41
2022/06/27 07:52:24;;;;;;;;;;;;;;;26.20;46.48;99150.44;7306772;19;129284;-41
2022/06/27 07:54:49;;;;;;;;;;;;;;;26.27;49.58;99132.94;7306175;19;130479;-38
2022/06/27 07:57:15;;;;;;;;;;;;;;;26.42;51.04;99135.56;7305750;19;130624;-39
2022/06/27 07:59:40;;;;;;;;;;;;;;;26.54;50.96;99134.91;7305588;19;129454;-41
2022/06/27 08:02:06;;;;;;;;;;;;;;;26.59;51.74;99142.28;7304983;19;130169;-40
2022/06/27 08:04:32;;;;;;;;;;;;;;;26.63;52.02;99144.38;7296277;19;131193;-41
2022/06/27 08:06:57;;;;;;;;;;;;;;;26.57;52.13;99124.03;7294709;19;132142;-41
2022/06/27 08:09:22;;;;;;;;;;;;;;;26.68;52.15;99147.31;7286308;19;130641;-42
2022/06/27 08:11:48;;;;;;;;;;;;;;;26.70;51.96;99145.31;7314492;19;129054;-35
2022/06/27 08:14:17;;;;;;;;;;;;;;;26.71;52.33;99146.13;7310442;19;130427;-35
2022/06/27 08:16:43;;;;;;;;;;;;;;;26.53;50.49;99143.84;7314872;19;130820;-40
2022/06/27 08:19:09;;;;;;;;;;;;;;;26.21;48.25;99144.19;7308681;19;130654;-36
2022/06/27 08:21:35;;;;;;;;;;;;;;;26.17;47.79;99135.00;7306632;19;130548;-40
2022/06/27 08:24:03;;;;;;;;;;;;;;;26.12;47.70;99132.09;7308995;19;130072;-36
2022/06/27 08:26:29;;;;;;;;;;;;;;;26.16;47.26;99141.28;7304323;19;130491;-41
2022/06/27 08:28:56;;;;;;;;;;;;;;;26.16;47.13;99141.28;7313957;19;129077;-34
2022/06/27 08:31:21;;;;;;;;;;;;;;;26.17;46.63;99153.44;7307769;19;129861;-42
2022/06/27 08:33:47;;;;;;;;;;;;;;;26.18;46.38;99149.81;7308645;19;131368;-42
2022/06/27 08:36:14;;;;;;;;;;;;;;;26.20;46.29;99147.81;7310449;19;130377;-32
2022/06/27 08:38:45;;;;;;;;;;;;;;;26.21;46.14;99146.84;7307027;19;131510;-33
2022/06/27 08:41:11;;;;;;;;;;;;;;;26.22;46.70;99151.09;7310399;19;129287;-33
2022/06/27 08:43:37;;;;;;;;;;;;;;;26.23;46.31;99158.00;7308232;19;130655;-30
2022/06/27 08:46:03;;;;;;;;;;;;;;;26.23;46.30;99151.91;7307560;19;130710;-42
2022/06/27 08:48:29;;;;;;;;;;;;;;;26.23;46.31;99151.91;7307304;19;131200;-33
2022/06/27 08:50:59;;;;;;;;;;;;;;;26.40;51.06;99159.47;7308501;19;129782;-40
2022/06/27 08:53:25;;;;;;;;;;;;;;;26.53;51.47;99162.28;7307783;19;132902;-32
2022/06/27 08:55:50;;;;;;;;;;;;;;;26.61;51.55;99164.84;7308028;19;130552;-31
2022/06/27 08:58:16;;;;;;;;;;;;;;;26.64;51.64;99161.81;7304058;19;129242;-41
2022/06/27 09:00:47;;;;;;;;;;;;;;;26.67;52.28;99156.25;7306030;19;131198;-36
2022/06/27 09:03:13;;;;;;;;;;;;;;;26.68;52.23;99168.41;7306283;19;130468;-37
2022/06/27 09:05:38;;;;;;;;;;;;;;;26.71;51.76;99154.84;7307043;19;130511;-36
2022/06/27 09:08:05;;;;;;;;;;;;;;;26.73;52.70;99155.50;7305723;19;130282;-32
2022/06/27 09:10:39;;;;;;;;;;;;;;;26.72;52.32;99153.88;7308106;19;130552;-39
2022/06/27 09:13:08;;;;;;;;;;;;;;;26.71;52.23;99154.84;7308598;19;130629;-41
2022/06/27 09:15:39;;;;;;;;;;;;;;;26.24;47.63;99164.09;7305938;19;131463;-37
2022/06/27 09:18:06;;;;;;;;;;;;;;;26.18;47.32;99147.16;7305986;19;131930;-40
2022/06/27 09:20:46;;;;;;;;;;;;;;;26.18;47.18;99155.06;7311849;19;129226;-35
2022/06/27 09:23:31;;;;;;;;;;;;;;;26.19;46.85;99153.28;7312181;19;129411;-39
2022/06/27 09:26:01;;;;;;;;;;;;;;;26.19;46.97;99151.47;7313552;19;130779;-37
2022/06/27 09:28:43;;;;;;;;;;;;;;;26.21;46.41;99151.28;7311070;19;128751;-32
2022/06/27 09:31:10;;;;;;;;;;;;;;;26.20;46.75;99145.19;7315135;19;129564;-44
2022/06/27 09:33:37;;;;;;;;;;;;;;;26.22;46.59;99145.81;7309585;19;131193;-38
2022/06/27 09:36:09;;;;;;;;;;;;;;;26.22;46.40;99151.09;7313925;19;129997;-35
2022/06/27 09:38:38;;;;;;;;;;;;;;;26.29;49.48;99146.75;7312562;19;128819;-32
2022/06/27 09:41:05;;;;;;;;;;;;;;;26.44;51.08;99150.22;7316841;19;129245;-36
2022/06/27 09:43:33;;;;;;;;;;;;;;;26.54;51.18;99145.47;7313978;19;129487;-35
2022/06/27 09:45:58;;;;;;;;;;;;;;;26.62;51.97;99142.75;7316538;19;131410;-30
2022/06/27 09:48:26;;;;;;;;;;;;;;;26.67;52.32;99140.41;7313227;19;130535;-37
2022/06/27 09:50:51;;;;;;;;;;;;;;;26.69;51.85;99142.88;7314121;19;128897;-30
2022/06/27 09:53:18;;;;;;;;;;;;;;;26.71;52.26;99136.41;7314032;19;130265;-36
2022/06/27 09:55:46;;;;;;;;;;;;;;;26.72;52.41;99132.78;7313663;19;130323;-45
2022/06/27 09:58:11;;;;;;;;;;;;;;;26.72;52.65;99127.50;7313093;19;129090;-32
2022/06/27 10:00:36;;;;;;;;;;;;;;;26.74;52.21;99124.69;7312994;19;129135;-36
2022/06/27 10:03:04;;;;;;;;;;;;;;;26.74;52.17;99122.03;7310538;19;130796;-33
2022/06/27 10:05:29;;;;;;;;;;;;;;;26.20;47.39;99120.63;7298440;19;130987;-31
2022/06/27 10:07:55;;;;;;;;;;;;;;;26.12;46.82;99118.09;7295091;19;130108;-42
2022/06/27 10:10:20;;;;;;;;;;;;;;;26.10;46.28;99120.91;7298768;19;130703;-39
2022/06/27 10:12:55;;;;;;;;;;;;;;;26.11;46.71;99117.28;7296991;19;130466;-34
2022/06/27 10:15:21;;;;;;;;;;;;;;;26.12;46.11;99129.47;7304059;19;130950;-31
2022/06/27 10:17:47;;;;;;;;;;;;;;;26.12;46.39;99133.91;7312858;19;129013;-32
2022/06/27 10:20:21;;;;;;;;;;;;;;;26.14;46.23;99131.91;7311905;19;128992;-35
2022/06/27 10:23:04;;;;;;;;;;;;;;;26.26;49.78;99136.53;7314209;19;130056;-34
2022/06/27 10:25:29;;;;;;;;;;;;;;;26.44;51.11;99134.41;7312391;19;130416;-34
2022/06/27 10:28:07;;;;;;;;;;;;;;;26.52;51.44;99139.56;7313609;19;129265;-40
2022/06/27 10:30:51;;;;;;;;;;;;;;;26.52;51.64;99125.56;7313343;19;129224;-33
2022/06/27 10:33:26;;;;;;;;;;;;;;;26.66;52.18;99149.31;7313637;19;130107;-38
2022/06/27 10:35:54;;;;;;;;;;;;;;;26.69;52.09;99135.75;7307582;19;130306;-39
2022/06/27 10:38:28;;;;;;;;;;;;;;;26.71;51.98;99135.56;7312627;19;129839;-37
2022/06/27 10:40:54;;;;;;;;;;;;;;;26.70;52.01;99123.41;7313982;19;129702;-33
2022/06/27 10:43:37;;;;;;;;;;;;;;;26.70;52.05;99124.22;7312334;19;130369;-39
2022/06/27 10:46:05;;;;;;;;;;;;;;;26.29;47.26;99109.84;7311417;19;130386;-35
2022/06/27 10:48:34;;;;;;;;;;;;;;;26.09;47.17;99108.75;7312219;19;129352;-36
2022/06/27 10:51:19;;;;;;;;;;;;;;;26.08;46.80;99112.34;7312477;19;129176;-43
2022/06/27 10:53:48;;;;;;;;;;;;;;;26.08;45.93;99107.09;7312350;19;130491;-33
2022/06/27 10:56:28;;;;;;;;;;;;;;;26.08;45.72;99109.72;7312502;19;129862;-30
2022/06/27 10:58:54;;;;;;;;;;;;;;;26.08;45.76;99107.09;7310664;19;129088;-40
2022/06/27 11:01:20;;;;;;;;;;;;;;;26.10;45.87;99112.19;7311327;19;128934;-34
2022/06/27 11:03:46;;;;;;;;;;;;;;;26.24;50.61;99101.66;7308275;19;129475;-35
2022/06/27 11:06:13;;;;;;;;;;;;;;;26.40;51.20;99101.47;7308305;19;129528;-35
2022/06/27 11:08:40;;;;;;;;;;;;;;;26.50;51.30;99102.03;7308750;19;129287;-34
2022/06/27 11:11:05;;;;;;;;;;;;;;;26.58;51.75;99112.47;7310280;19;131029;-32
2022/06/27 11:13:37;;;;;;;;;;;;;;;26.62;51.50;99103.19;7311943;19;129512;-34
2022/06/27 11:16:03;;;;;;;;;;;;;;;26.66;52.05;99098.38;7311522;19;130347;-38
2022/06/27 11:18:39;;;;;;;;;;;;;;;26.67;52.24;99103.50;7309646;19;129313;-35
2022/06/27 11:21:05;;;;;;;;;;;;;;;26.69;51.86;99101.47;7312113;19;129823;-35
2022/06/27 11:23:30;;;;;;;;;;;;;;;26.69;52.02;99093.56;7311285;19;130334;-32
2022/06/27 11:25:57;;;;;;;;;;;;;;;26.43;47.39;99095.84;7312435;19;130208;-33
2022/06/27 11:33:50;;;;;;;;;;;;;;;26.07;46.32;99084.38;7311471;19;129411;-35
2022/06/27 11:36:15;;;;;;;;;;;;;;;26.07;46.01;99084.38;7312091;19;129691;-40
2022/06/27 11:38:45;;;;;;;;;;;;;;;26.09;45.92;99086.84;7309462;19;129324;-33
2022/06/27 11:41:12;;;;;;;;;;;;;;;26.09;45.38;99079.75;7310245;19;130664;-34
2022/06/27 11:43:50;;;;;;;;;;;;;;;26.28;50.53;99083.69;7309108;19;131705;-38
2022/06/27 11:46:35;;;;;;;;;;;;;;;26.44;51.50;99076.41;7310672;19;129568;-35
2022/06/27 11:49:08;;;;;;;;;;;;;;;26.53;51.57;99072.66;7305810;19;128923;-36
2022/06/27 11:51:39;;;;;;;;;;;;;;;26.57;51.35;99076.56;7311094;19;129126;-33
2022/06/27 11:54:24;;;;;;;;;;;;;;;26.61;51.80;99067.25;7309914;19;129270;-34
2022/06/27 11:56:51;;;;;;;;;;;;;;;26.67;51.69;99068.38;7311650;19;129905;-39
2022/06/27 11:59:17;;;;;;;;;;;;;;;26.67;51.61;99077.13;7314596;19;128964;-35
2022/06/27 12:02:09;;;;;;;;;;;;;;;26.67;51.62;99069.22;7317128;19;129415;-36
2022/06/27 12:04:34;;;;;;;;;;;;;;;26.69;52.27;99069.81;7312722;19;131017;-40
2022/06/27 12:07:09;;;;;;;;;;;;;;;26.72;52.04;99069.47;7317275;19;130041;-30
2022/06/27 12:09:51;;;;;;;;;;;;;;;26.22;46.50;99074.66;7311421;19;130221;-39
2022/06/27 12:12:17;;;;;;;;;;;;;;;26.06;47.06;99072.22;7301995;19;130585;-33
2022/06/27 12:14:44;;;;;;;;;;;;;;;26.05;46.67;99073.19;7317214;19;129238;-34
2022/06/27 12:17:09;;;;;;;;;;;;;;;26.04;46.50;99078.66;7317260;19;131143;-44
2022/06/27 12:19:34;;;;;;;;;;;;;;;26.04;46.43;99068.13;7313761;19;129381;-29
2022/06/27 12:21:59;;;;;;;;;;;;;;;26.04;46.31;99065.47;7316317;19;129016;-36
2022/06/27 12:24:25;;;;;;;;;;;;;;;26.06;46.41;99061.69;7316700;19;129477;-38
2022/06/27 12:26:50;;;;;;;;;;;;;;;26.20;50.62;99058.22;7315948;19;130269;-31
2022/06/27 12:29:17;;;;;;;;;;;;;;;26.37;51.60;99062.31;7314655;19;128902;-31
2022/06/27 12:31:42;;;;;;;;;;;;;;;26.50;51.23;99059.84;7316986;19;129222;-33
2022/06/27 12:34:07;;;;;;;;;;;;;;;26.57;51.16;99060.75;7315502;19;129336;-38
2022/06/27 12:36:33;;;;;;;;;;;;;;;26.61;51.92;99056.72;7316447;19;129052;-35
2022/06/27 12:39:00;;;;;;;;;;;;;;;26.65;51.24;99067.72;7311515;19;132036;-34
2022/06/27 12:41:25;;;;;;;;;;;;;;;26.67;51.88;99061.31;7316897;19;129056;-39